Innsbruck, Austria

6:40 AM CET on March 03, 2015 (GMT +0100)
Innsbruck | Change Station
CLOSE
Current Station
Airport
Location: Innsbruck,
Elevation: 1906 ft
Nearby Weather Stations

Elev 1906 ft 47.26 °N, 11.34 °E | Updated 20 minutes ago

Scattered Clouds
Scattered Clouds
32 °F
Feels Like 32 °F
N
2
Wind Variable Wind from Variable

Today
High -- | Low -- °F
--% Chance of Precip.
Yesterday
High -- | Low -- °F
Precip. -- in
6:51 AM 6:02 PM
Waxing Gibbous, 94% visible
Pressure 30.18 in
Visibility 5.0 miles
Clouds Few 500 ft
Scattered Clouds 700 ft
Dew Point 32 °F
Humidity 100%
Rainfall 0.00 in
Snow Depth Not available.
UV 0 out of 12
Pollen Not available.
Air Quality Not available.
Flu Activity Not available.
METAR LOWI 030520Z VRB02KT 8000 FEW005 SCT007 00/M00 Q1022 R08/29//95 NOSIG

More Conditions Fewer Conditions

Pressure 30.18 in
Visibility 5.0 miles
Clouds Few 500 ft
Scattered Clouds 700 ft
Dew Point 32 °F
Humidity 100%
Rainfall 0.00 in
Snow Depth Not available.
UV 0 out of 12
Pollen Not available.
Air Quality Not available.
Flu Activity Not available.
METAR LOWI 030520Z VRB02KT 8000 FEW005 SCT007 00/M00 Q1022 R08/29//95 NOSIG

More Conditions Fewer Conditions

10-Day Weather Forecast

Almanac

Astronomy

Mar. 03, 2015 Rise Set
Actual Time
Civil Twilight
Nautical Twilight
Astronomical Twilight
Moon
Length of Visible Light
Length of Day
Tomorrow will be .
, % of the Moon is Illuminated

Today's Extremes

Country Highs Country Lows

Community

WunderPhotos

Upload Photos

1,802,068 photos uploaded!

WunderBlogs® & News

Nearby

Air Quality

  Air Quality AQ Index Pollutant
Not available.

Snow Depth

Station Depth Elevation

Earthquake Activity

City Distance Mag. Time & Date
Minimum magnitude displayed is 2.5.

Coastal Water Temperatures

Place Temperature

Nearby Weather Stations